首页
METAR-TAF:

METAR-TAF

机场 :

Tofino, 不列颠哥伦比亚, 加拿大

纬度: 49-05N, 经度: 125-46W, 海拔: 24米

当前天气观测

该预报发布于45分钟前的17:00 UTC
静风
温度 16°C
湿度 88%
气压 1023 hPa
能見度: 24.1公里
少量云层高于600英尺
散云层高于1000英尺

METAR: CYAZ 081700Z 00000KT 15SM FEW006 SCT010 16/14 A3020 RMK CF1CU2 SLP227

时间: 10:45 (17:45 UTC)

预报

该预报发布于3小时和7分钟前的14:38 UTC
预报有效从08日的 15点(UTC)到 09日的 01点(UTC)
风速3节,风向多变
能見度: 10公里
散云层高于500英尺
多云层高于6000英尺
短暂存在
从 08日的 15点(UTC)到 08日的 18点(UTC)
能見度: 8.0公里
多云层高于500英尺
多云层高于6000英尺
轻雾
从 08日的 1800点(UTC)
风速10节,风向西转西北
能見度: 10公里
少量云层高于5000英尺

TAF: CYAZ 081438Z 0815/0901 VRB03KT P6SM SCT005 BKN060 TEMPO 0815/0818 5SM BR BKN005 BKN060 FM081800 30010KT P6SM FEW050 RMK NXT FCST BY 081900Z

超过4000个机场的气象观测和天气预报(METAR&TAF报告)。

可查询的气象台以黄色和红色小点在地图上表示。

将鼠标移到小点上方,可查看气象台名称。

然后点击查看天气观测和预报。

如需切换地图:点击带黑十字的绿色按钮放大地图;点击带横线的绿色按钮缩小地图;或者点击绿色箭头查看邻近地区的地图。


METAR-TAF: